KDVL Airport (Devils Lake Rgnl) Information

FAA: DVL - ICAO: KDVL

KDVL Airport Location

State North Dakota
County Ramsey
City Devils Lake
KDVL Airport is 2 miles west of Devils Lake, ND.
Latitude 48-06-59.7000N
Longitude 098-54-36.0000W
Elevation 1,469ft

KDVL Airport METARs

METAR KDVL 281356Z AUTO 30011KT 10SM CLR 02/01 A2985 RMK AO2 SLP694 T00170006 FZRANO
Altimeter 29.85"
Temperature 1.7°C (35.1°F)
Wind 300° at 11KT
Clouds Skies are clear.
Visibility 10.0mi
Time observed: 2021-10-28T13:56:00Z

KDVL Airport Details

Status Operational
Activation N/A
Ownership Public
Usage Public
Chart TWIN CITIES
ATC on-site No
Beacon schedule sunset-sunrise
Beacon color clear green

KDVL Airport Contacts

Owner DEVILS LAKE AIRPORT AUTHORITY
Owner address 106 NATIONAL GUARD ST NW, DEVILS LAKE, ND 58301-8993
Owner phone 701-662-5833
Manager JASON WOLSKY
Manager address 103 10TH AVE N, PO BOX 139, CARRINGTON, ND 58421
Manager phone (701) 652-5206

KDVL Airport (Devils Lake Rgnl) Radio Frequencies

KDVL (Airport) Radio Frequencies

UNICOM 122.8
Common traffic advisory frequency (CTAF) 122.8